Kralendijk, Bonaire, Dutch Antilles Cruise Port

Bonaire has consistently been ranked as the finest snorkeling and scuba diving destination in the Caribbean for two decades. This is because of the island's diligent stewardship of its marine resources. Since 1979, all the waters of Bonaire's coast have been legally protected.

Besides snorkeling and scuba diving, there is plenty more to be done here. Bonaire has trade winds that are usually steady and wash over the island. This creates ideal conditions for windsurfing. The sere beauty of this semi-desert landscape is home to an assortment of wildlife. Atop the rock formations of Washington Slagbaai you can find iguanas toasting themselves, while they watch a vast cloud of orange-pink flamingoes drift across the bone-white salt flats. The divi-divi trees bending into the surreal sculptures of the wind, and towering cacti represent the Caribbean's diverse ecology.

Another great thing about Bonaire is that it has a yearly average temperature of 82 degrees F (27.8 degrees C) with an average water temperature of 80 degrees F (26.7 degrees C). All year, Bonaire is not likely to see more than 22 inches (56 cm) of rain. This can be attributed to its nearly constant humidity of 76% and year round sunny forecast.

Cruise Deals Including Bonaire

Date Ship Nts Destination Inside Oceanview Balcony Suite Per Night
2020-11-01 Freedom Of The Seas 7 Southern Caribbean $ 800 pp $ 1053 pp $ 1268 pp $ 1935 pp $ 114 pp/pd
2020-11-02 Reflection 11 Southern Caribbean $ 1674 pp $ 1714 pp $ 2174 pp $ 6499 pp $ 152 pp/pd
2020-11-06 Equinox 9 Southern Caribbean $ 1499 pp $ 1549 pp $ 2149 pp $ 5199 pp $ 167 pp/pd
2020-11-09 Breakaway 13 Southern Caribbean $ 1299 pp $ 1539 pp $ 1869 pp $ 2269 pp $ 100 pp/pd
2020-11-11 Sun 10 Southern Caribbean $ 1199 pp $ 1349 pp $ 1929 pp $ 2549 pp $ 120 pp/pd
2020-11-13 Edge 9 Southern Caribbean $ 1549 pp $ 1899 pp $ 2199 pp $ 5499 pp $ 172 pp/pd
2020-11-15 Freedom Of The Seas 7 Southern Caribbean $ 922 pp $ 1117 pp $ 1451 pp $ 2153 pp $ 132 pp/pd
2020-11-20 Explorer Of The Seas 9 Southern Caribbean $ 1198 pp $ 1348 pp $ 1649 pp $ 2498 pp $ 133 pp/pd
2020-11-21 Constellation 11 Southern Caribbean $ 1549 pp $ 1849 pp $ 2499 pp $ 6679 pp $ 141 pp/pd
2020-11-29 Freedom Of The Seas 7 Southern Caribbean $ 857 pp $ 1105 pp $ 1367 pp $ 1845 pp $ 122 pp/pd
2020-12-04 Explorer Of The Seas 9 Southern Caribbean $ 849 pp $ 1049 pp $ 1399 pp $ 2148 pp $ 94 pp/pd
2020-12-05 Summit 7 Southern Caribbean $ 1504 pp $ 1634 pp $ 2324 pp $ 4079 pp $ 215 pp/pd
2020-12-09 Sun 10 Southern Caribbean $ 1149 pp $ 1249 pp $ 1729 pp $ 2399 pp $ 115 pp/pd
2020-12-13 Freedom Of The Seas 7 Southern Caribbean $ 799 pp $ 1146 pp $ 1451 pp $ 2260 pp $ 114 pp/pd
2020-12-18 Explorer Of The Seas 9 Southern Caribbean $ 1049 pp $ 1249 pp $ 1548 pp $ 2169 pp $ 117 pp/pd
2020-12-20 Sky Princess 16 Caribbean $ 2199 pp $ 3399 pp $ 3238 pp $ 4699 pp $ 137 pp/pd
2020-12-27 Freedom Of The Seas 7 Southern Caribbean $ 1561 pp $ 1756 pp $ 2213 pp $ 3129 pp $ 223 pp/pd
2020-12-28 Sky Princess 8 Caribbean $ 1099 pp $ 1799 pp $ 1619 pp $ 2399 pp $ 137 pp/pd
2021-01-01 Explorer Of The Seas 9 Southern Caribbean $ 819 pp $ 983 pp $ 1199 pp $ 1879 pp $ 91 pp/pd
2021-01-03 Getaway 11 Southern Caribbean $ 1199 pp $ 1409 pp $ 1739 pp $ 2139 pp $ 109 pp/pd
2021-01-04 Constellation 11 Southern Caribbean $ 1359 pp $ 1577 pp $ 2259 pp N/A $ 124 pp/pd
2021-01-06 Nieuw Statendam 21 Southern Caribbean $ 2899 pp $ 3649 pp $ 3899 pp $ 5999 pp $ 138 pp/pd
2021-01-10 Freedom Of The Seas 7 Southern Caribbean $ 645 pp $ 909 pp $ 1184 pp $ 1664 pp $ 92 pp/pd
2021-01-11 Pearl 10 Southern Caribbean $ 1149 pp $ 1299 pp $ 2109 pp $ 2489 pp $ 115 pp/pd
2021-01-13 Riviera 66 World Cruise N/A N/A N/A $ 27849 pp $ 422 pp/pd
2021-01-14 Seven Seas Splendor 12 Eastern Caribbean N/A N/A N/A $ 7799 pp $ 650 pp/pd
2021-01-15 Explorer Of The Seas 9 Southern Caribbean $ 779 pp $ 949 pp $ 1249 pp $ 2299 pp $ 87 pp/pd
2021-01-17 Nieuw Statendam 14 Southern Caribbean $ 1899 pp $ 2299 pp $ 2549 pp $ 3899 pp $ 136 pp/pd
2021-01-19 Sky Princess 20 Caribbean $ 2029 pp N/A $ 2973 pp $ 4899 pp $ 101 pp/pd
2021-01-23 Rhapsody Of The Seas 10 Western Caribbean $ 704 pp $ 784 pp $ 1502 pp $ 2398 pp $ 70 pp/pd
2021-01-24 Freedom Of The Seas 7 Southern Caribbean $ 623 pp $ 865 pp $ 1075 pp $ 1525 pp $ 89 pp/pd
2021-01-25 Reflection 11 Southern Caribbean $ 1674 pp $ 1724 pp $ 1854 pp N/A $ 149 pp/pd
2021-01-29 Explorer Of The Seas 9 Southern Caribbean $ 779 pp $ 949 pp $ 1229 pp $ 1899 pp $ 87 pp/pd
2021-01-31 Epic 7 Caribbean $ 779 pp N/A $ 1149 pp $ 1279 pp $ 111 pp/pd
2021-02-01 Encore 12 Panama Canal $ 1449 pp $ 1999 pp $ 2729 pp $ 3349 pp $ 121 pp/pd
2021-02-07 Epic 7 Southern Caribbean $ 699 pp N/A $ 1029 pp $ 1199 pp $ 100 pp/pd
2021-02-08 Sky Princess 20 Caribbean $ 2229 pp N/A $ 3058 pp $ 5299 pp $ 111 pp/pd
2021-02-12 Explorer Of The Seas 9 Southern Caribbean $ 829 pp $ 1019 pp $ 1319 pp $ 2399 pp $ 92 pp/pd
2021-02-14 Epic 7 Caribbean $ 899 pp N/A $ 1249 pp $ 1549 pp $ 128 pp/pd
2021-02-15 Constellation 11 Southern Caribbean $ 1443 pp $ 1628 pp $ 2577 pp N/A $ 129 pp/pd
2021-02-16 Riviera 22 World Cruise N/A N/A $ 7449 pp $ 9749 pp $ 339 pp/pd
2021-02-17 Nieuw Statendam 21 Southern Caribbean $ 2999 pp $ 3799 pp $ 4099 pp $ 6299 pp $ 143 pp/pd
2021-02-18 Sky Princess 20 Caribbean $ 2229 pp $ 3379 pp $ 3040 pp $ 5199 pp $ 111 pp/pd
2021-02-19 Equinox 9 Southern Caribbean $ 1699 pp $ 1849 pp $ 2399 pp N/A $ 183 pp/pd
2021-02-21 Freedom Of The Seas 7 Southern Caribbean $ 672 pp $ 853 pp $ 1156 pp $ 1745 pp $ 96 pp/pd
2021-02-26 Explorer Of The Seas 9 Southern Caribbean $ 779 pp $ 929 pp $ 1229 pp $ 1929 pp $ 87 pp/pd
2021-02-27 Summit 7 Southern Caribbean $ 1454 pp $ 1784 pp $ 2074 pp N/A $ 208 pp/pd
2021-02-28 Sky Princess 20 Caribbean $ 2199 pp $ 3329 pp $ 3010 pp $ 4549 pp $ 110 pp/pd
2021-03-06 Horizon 8 Southern Caribbean $ 699 pp $ 909 pp $ 1249 pp $ 1629 pp $ 87 pp/pd
2021-03-07 Epic 7 Caribbean $ 799 pp N/A $ 1299 pp $ 1499 pp $ 114 pp/pd
2021-03-08 Reflection 11 Southern Caribbean $ 1539 pp $ 1879 pp $ 2189 pp N/A $ 140 pp/pd
2021-03-10 Sky Princess 20 Caribbean $ 2199 pp $ 3299 pp $ 3099 pp $ 4099 pp $ 110 pp/pd
2021-03-12 Equinox 9 Southern Caribbean $ 1565 pp $ 1675 pp $ 2399 pp N/A $ 164 pp/pd
2021-03-14 Epic 7 Caribbean $ 849 pp N/A $ 1329 pp $ 1529 pp $ 121 pp/pd
2021-03-20 Sky Princess 20 Caribbean $ 2199 pp $ 3299 pp $ 3099 pp $ 4099 pp $ 110 pp/pd
2021-03-21 Freedom Of The Seas 7 Southern Caribbean $ 701 pp $ 955 pp $ 1187 pp $ 1916 pp $ 100 pp/pd
2021-03-26 Explorer Of The Seas 9 Southern Caribbean $ 789 pp $ 979 pp $ 1399 pp $ 2299 pp $ 88 pp/pd
2021-03-27 Summit 7 Southern Caribbean $ 1504 pp $ 1854 pp $ 2074 pp N/A $ 215 pp/pd
2021-03-28 Epic 7 Caribbean $ 829 pp N/A $ 1279 pp $ 1499 pp $ 118 pp/pd
2021-04-02 Equinox 9 Southern Caribbean $ 1249 pp $ 1429 pp $ 1709 pp N/A $ 137 pp/pd
2021-04-03 Seabourn Odyssey 21 Southern Caribbean N/A $ 9999 pp N/A $ 9999 pp $ 476 pp/pd
2021-04-04 Explorer Of The Seas 9 Eastern Caribbean $ 789 pp $ 979 pp $ 1299 pp $ 2464 pp $ 88 pp/pd
2021-04-10 Seabourn Odyssey 14 Southern Caribbean N/A $ 6999 pp N/A $ 6999 pp $ 500 pp/pd
2021-04-11 Jade 11 Southern Caribbean $ 999 pp $ 1259 pp $ 2099 pp $ 2559 pp $ 91 pp/pd
2021-04-17 Horizon 8 Southern Caribbean $ 709 pp $ 919 pp $ 1259 pp $ 1711 pp $ 89 pp/pd
2021-04-18 Freedom Of The Seas 7 Southern Caribbean $ 696 pp $ 932 pp $ 1119 pp $ 1810 pp $ 99 pp/pd
2021-04-23 Breakaway 9 Southern Caribbean $ 823 pp $ 1127 pp $ 1567 pp $ 1919 pp $ 91 pp/pd
2021-04-24 Summit 7 Southern Caribbean $ 1458 pp $ 1681 pp $ 1959 pp N/A $ 208 pp/pd
2021-04-27 Seven Seas Navigator 14 Eastern Caribbean N/A N/A N/A $ 5999 pp $ 429 pp/pd
2021-05-01 Horizon 8 Southern Caribbean $ 679 pp $ 909 pp $ 1249 pp $ 1670 pp $ 85 pp/pd
2021-05-14 Breakaway 9 Southern Caribbean $ 847 pp $ 1127 pp $ 1567 pp $ 1919 pp $ 94 pp/pd
2021-05-16 Seven Seas Navigator 15 Eastern Caribbean N/A N/A N/A $ 4949 pp $ 330 pp/pd
2021-05-29 Horizon 8 Southern Caribbean $ 879 pp $ 1089 pp $ 1429 pp N/A $ 110 pp/pd
2021-06-12 Horizon 8 Southern Caribbean $ 979 pp $ 1214 pp $ 1639 pp $ 2649 pp $ 122 pp/pd
2021-07-10 Horizon 8 Southern Caribbean $ 974 pp $ 1214 pp $ 1679 pp $ 2729 pp $ 122 pp/pd
2021-08-07 Horizon 8 Southern Caribbean $ 869 pp $ 1049 pp $ 1449 pp $ 2129 pp $ 109 pp/pd
2021-08-27 Equinox 9 Southern Caribbean $ 1089 pp $ 1279 pp $ 1159 pp N/A $ 117 pp/pd
2021-08-30 Brilliance Of The Seas 13 Repositioning $ 746 pp $ 867 pp $ 1187 pp N/A $ 57 pp/pd
2021-09-04 Horizon 8 Southern Caribbean $ 659 pp $ 839 pp $ 1119 pp $ 1809 pp $ 82 pp/pd
2021-09-17 Equinox 9 Southern Caribbean $ 1269 pp $ 1399 pp $ 1899 pp N/A $ 139 pp/pd
2021-09-18 Horizon 8 Southern Caribbean $ 659 pp $ 859 pp $ 1119 pp $ 1876 pp $ 82 pp/pd
2021-10-02 Horizon 8 Southern Caribbean $ 629 pp $ 799 pp $ 1089 pp $ 1741 pp $ 79 pp/pd
2021-10-08 Equinox 9 Southern Caribbean $ 1029 pp $ 1249 pp $ 1649 pp N/A $ 112 pp/pd
2021-10-15 Sirena 27 World Cruise $ 3599 pp $ 4099 pp $ 5649 pp $ 8449 pp $ 133 pp/pd
2021-10-19 Joy 11 Southern Caribbean $ 1071 pp $ 1431 pp $ 1871 pp $ 2151 pp $ 97 pp/pd
2021-10-20 Equinox 9 Southern Caribbean $ 1129 pp $ 1249 pp $ 1699 pp N/A $ 123 pp/pd
2021-10-23 Summit 7 Southern Caribbean $ 1299 pp $ 1389 pp $ 1679 pp N/A $ 183 pp/pd
2021-10-29 Equinox 9 Southern Caribbean $ 1249 pp $ 1349 pp $ 1979 pp N/A $ 134 pp/pd
2021-10-30 Sirena 12 Caribbean $ 1699 pp $ 1999 pp $ 2899 pp $ 3949 pp $ 142 pp/pd
2021-11-02 Sky 9 Panama Canal $ 943 pp $ 1191 pp $ 1647 pp $ 3863 pp $ 105 pp/pd
2021-11-04 Caribbean Princess 16 Caribbean $ 1239 pp $ 1412 pp $ 2029 pp $ 2669 pp $ 77 pp/pd
2021-11-06 Sky Princess 14 Caribbean $ 1049 pp $ 1539 pp $ 1389 pp $ 2099 pp $ 75 pp/pd
2021-11-07 Brilliance Of The Seas 11 Repositioning $ 817 pp $ 967 pp $ 1637 pp $ 3024 pp $ 74 pp/pd
2021-11-11 Sky 9 Panama Canal $ 943 pp $ 1191 pp $ 1647 pp $ 3207 pp $ 105 pp/pd
2021-11-12 Explorer Of The Seas 9 Western Caribbean $ 799 pp $ 999 pp $ 1249 pp $ 1999 pp $ 89 pp/pd
2021-11-19 Equinox 9 Southern Caribbean $ 1329 pp $ 1459 pp $ 1969 pp N/A $ 143 pp/pd
2021-11-20 Caribbean Princess 8 Caribbean $ 729 pp $ 839 pp $ 1129 pp $ 1419 pp $ 91 pp/pd
2021-11-22 Edge 11 Transcanal $ 1999 pp $ 2189 pp $ 2519 pp $ 52364 pp $ 174 pp/pd
2021-11-26 Explorer Of The Seas 9 Western Caribbean $ 799 pp $ 999 pp $ 1249 pp $ 1999 pp $ 89 pp/pd
2021-11-27 Horizon 8 Southern Caribbean $ 609 pp $ 769 pp $ 1059 pp $ 1729 pp $ 76 pp/pd
2021-11-28 Freedom Of The Seas 7 Southern Caribbean $ 800 pp $ 965 pp $ 1163 pp $ 1922 pp $ 114 pp/pd
2021-11-29 Sky 9 Panama Canal $ 943 pp $ 1143 pp $ 1599 pp $ 3207 pp $ 105 pp/pd
2021-11-30 Enchanted Princess 20 Caribbean $ 1579 pp N/A $ 2523 pp $ 3479 pp $ 79 pp/pd
2021-12-04 Summit 7 Southern Caribbean $ 1249 pp $ 1339 pp $ 1629 pp N/A $ 176 pp/pd
2021-12-06 Sunshine 10 Southern Caribbean $ 689 pp $ 959 pp $ 1339 pp $ 2439 pp $ 69 pp/pd
2021-12-08 Sky 9 Panama Canal $ 943 pp $ 1191 pp $ 1871 pp $ 3383 pp $ 105 pp/pd
2021-12-10 Explorer Of The Seas 9 Western Caribbean $ 799 pp $ 999 pp $ 1249 pp $ 1999 pp $ 89 pp/pd
2021-12-11 Seabourn Odyssey 18 Caribbean N/A $ 8999 pp N/A $ 9499 pp $ 500 pp/pd
2021-12-13 Discovery Princess 16 Caribbean $ 2479 pp N/A $ 3208 pp $ 4049 pp $ 155 pp/pd
2021-12-18 Seabourn Odyssey 21 Caribbean N/A $ 10999 pp N/A $ 11499 pp $ 524 pp/pd
2021-12-20 Enchanted Princess 20 Caribbean $ 2539 pp $ 4179 pp $ 3879 pp $ 5179 pp $ 127 pp/pd
2021-12-21 Discovery Princess 16 Caribbean $ 2879 pp N/A $ 3748 pp $ 4749 pp $ 180 pp/pd
2021-12-23 Riviera 12 Caribbean $ 2699 pp $ 3349 pp $ 3899 pp $ 5949 pp $ 225 pp/pd
2021-12-24 Explorer Of The Seas 9 Western Caribbean $ 1299 pp $ 1629 pp $ 2039 pp $ 3269 pp $ 144 pp/pd
2021-12-27 Getaway 9 Southern Caribbean $ 1463 pp $ 1775 pp $ 2047 pp $ 2319 pp $ 163 pp/pd
2021-12-30 Enchanted Princess 20 Caribbean $ 2169 pp $ 3639 pp $ 3339 pp $ 4539 pp $ 108 pp/pd
2022-01-03 Constellation 11 Southern Caribbean $ 1529 pp $ 1729 pp $ 2729 pp N/A $ 134 pp/pd
2022-01-04 Riviera 73 World Cruise $ 15999 pp $ 18449 pp $ 20949 pp $ 29499 pp $ 219 pp/pd
2022-01-05 Getaway 9 Southern Caribbean $ 719 pp $ 1015 pp $ 1351 pp $ 1519 pp $ 80 pp/pd
2022-01-07 Explorer Of The Seas 9 Western Caribbean $ 849 pp $ 1069 pp $ 1339 pp $ 2149 pp $ 94 pp/pd
2022-01-08 Horizon 8 Southern Caribbean $ 619 pp $ 799 pp $ 1169 pp $ 2031 pp $ 77 pp/pd
2022-01-09 Enchanted Princess 20 Caribbean $ 1899 pp N/A $ 2899 pp $ 3999 pp $ 95 pp/pd
2022-01-15 Summit 7 Southern Caribbean $ 1299 pp $ 1389 pp $ 1679 pp N/A $ 183 pp/pd
2022-01-16 Epic 7 Southern Caribbean $ 703 pp N/A $ 1071 pp $ 1135 pp $ 100 pp/pd
2022-01-19 Enchanted Princess 20 Caribbean $ 1999 pp $ 3299 pp $ 2999 pp $ 4099 pp $ 100 pp/pd
2022-01-21 Explorer Of The Seas 9 Western Caribbean $ 849 pp $ 1069 pp $ 1339 pp $ 2199 pp $ 94 pp/pd
2022-01-22 Horizon 8 Southern Caribbean $ 639 pp $ 839 pp $ 1249 pp $ 1961 pp $ 80 pp/pd
2022-01-23 Freedom Of The Seas 7 Southern Caribbean $ 759 pp $ 919 pp $ 1099 pp $ 2059 pp $ 108 pp/pd
2022-01-24 Edge 11 Southern Caribbean $ 1599 pp $ 1789 pp $ 2189 pp $ 47414 pp $ 145 pp/pd
2022-01-29 Enchanted Princess 20 Caribbean $ 1999 pp $ 3299 pp $ 2999 pp $ 4099 pp $ 100 pp/pd
2022-01-30 Jewel 11 Panama Canal $ 1039 pp $ 1279 pp $ 1863 pp $ 2247 pp $ 94 pp/pd
2022-02-02 Getaway 9 Southern Caribbean $ 743 pp $ 1103 pp $ 1463 pp $ 1567 pp $ 83 pp/pd
2022-02-03 Seven Seas Splendor 14 Eastern Caribbean N/A N/A N/A $ 7799 pp $ 557 pp/pd
2022-02-05 Silver Spirit 9 Caribbean N/A N/A N/A $ 3870 pp $ 430 pp/pd
2022-02-07 Riviera 12 Caribbean $ 3149 pp $ 3599 pp $ 4199 pp $ 5599 pp $ 262 pp/pd
2022-02-08 Enchanted Princess 20 Caribbean $ 1999 pp $ 3299 pp $ 2999 pp $ 4099 pp $ 100 pp/pd
2022-02-09 Dawn 11 Southern Caribbean $ 903 pp $ 1263 pp $ 1879 pp $ 2231 pp $ 82 pp/pd
2022-02-11 Sirena 12 Caribbean $ 2699 pp $ 3049 pp $ 4249 pp $ 5599 pp $ 225 pp/pd
2022-02-12 Freedom 8 Southern Caribbean $ 629 pp $ 759 pp $ 1069 pp $ 1644 pp $ 79 pp/pd
2022-02-14 Edge 11 Transcanal $ 1764 pp $ 2034 pp $ 2389 pp $ 52914 pp $ 160 pp/pd
2022-02-18 Explorer Of The Seas 9 Western Caribbean $ 849 pp $ 1069 pp $ 1339 pp $ 2149 pp $ 94 pp/pd
2022-02-19 Horizon 8 Southern Caribbean $ 669 pp $ 849 pp $ 1259 pp $ 2111 pp $ 84 pp/pd
2022-02-20 Freedom Of The Seas 7 Southern Caribbean $ 849 pp $ 1019 pp $ 1229 pp $ 2229 pp $ 121 pp/pd
2022-02-21 Jewel 9 Panama Canal $ 839 pp $ 1079 pp $ 1519 pp $ 1815 pp $ 93 pp/pd
2022-02-26 Summit 7 Southern Caribbean $ 1299 pp $ 1389 pp $ 1679 pp N/A $ 183 pp/pd
2022-02-27 Crown Princess 14 Caribbean $ 1229 pp $ 1379 pp $ 2379 pp $ 3179 pp $ 88 pp/pd
2022-02-28 Enchanted Princess 20 Caribbean $ 1899 pp $ 3199 pp $ 2899 pp $ 3999 pp $ 95 pp/pd
2022-03-02 Jewel 8 Panama Canal $ 799 pp $ 1039 pp $ 1423 pp $ 1687 pp $ 100 pp/pd
2022-03-04 Explorer Of The Seas 9 Western Caribbean $ 849 pp $ 1069 pp $ 1339 pp $ 2149 pp $ 94 pp/pd
2022-03-05 Sirena 12 Caribbean $ 2199 pp $ 2349 pp $ 3249 pp $ 4399 pp $ 183 pp/pd
2022-03-07 Edge 11 Southern Caribbean $ 1599 pp $ 1859 pp $ 2219 pp $ 49614 pp $ 140 pp/pd
2022-03-10 Enchanted Princess 20 Caribbean $ 1999 pp $ 3206 pp $ 3112 pp $ 4099 pp $ 100 pp/pd
2022-03-12 Summit 7 Southern Caribbean $ 1249 pp $ 1339 pp $ 1529 pp N/A $ 176 pp/pd
2022-03-13 Epic 7 Southern Caribbean $ 791 pp N/A $ 1167 pp $ 1231 pp $ 113 pp/pd
2022-03-18 Explorer Of The Seas 9 Western Caribbean $ 849 pp $ 1069 pp $ 1339 pp $ 2149 pp $ 94 pp/pd
2022-03-19 Seabourn Odyssey 14 Southern Caribbean N/A $ 6299 pp N/A $ 6599 pp $ 450 pp/pd
2022-03-20 Freedom Of The Seas 7 Southern Caribbean $ 959 pp $ 1159 pp $ 1359 pp $ 2159 pp $ 137 pp/pd
2022-03-25 Equinox 9 Southern Caribbean $ 1449 pp $ 1749 pp $ 2329 pp N/A $ 157 pp/pd
2022-03-26 Seabourn Odyssey 7 Southern Caribbean N/A $ 3499 pp N/A $ 3799 pp $ 500 pp/pd
2022-03-28 Edge 11 Transcanal $ 1859 pp $ 2049 pp $ 2339 pp $ 51814 pp $ 161 pp/pd
2022-03-29 Sirena 21 World Cruise $ 2799 pp $ 3149 pp $ 4699 pp $ 6649 pp $ 133 pp/pd
2022-03-30 Enchanted Princess 10 Southern Caribbean $ 999 pp $ 1649 pp $ 1499 pp $ 2049 pp $ 100 pp/pd
2022-04-01 Explorer Of The Seas 9 Western Caribbean $ 849 pp $ 1069 pp $ 1339 pp $ 2149 pp $ 94 pp/pd
2022-04-02 Crown Princess 14 Caribbean $ 1229 pp $ 1379 pp $ 2379 pp $ 3179 pp $ 88 pp/pd
2022-04-09 Summit 7 Southern Caribbean $ 1389 pp $ 1499 pp $ 1899 pp N/A $ 197 pp/pd
2022-04-15 Explorer Of The Seas 9 Western Caribbean $ 899 pp $ 1129 pp $ 1419 pp $ 2279 pp $ 100 pp/pd
2022-04-16 Seabourn Odyssey 12 Caribbean N/A $ 5499 pp N/A $ 5999 pp $ 458 pp/pd
2022-04-17 Freedom Of The Seas 7 Southern Caribbean $ 899 pp $ 1049 pp $ 1309 pp $ 2329 pp $ 128 pp/pd
2022-04-23 Summit 7 Southern Caribbean $ 1089 pp $ 1309 pp $ 1609 pp N/A $ 154 pp/pd
2022-04-30 Horizon 8 Southern Caribbean $ 709 pp $ 889 pp $ 1279 pp $ 1981 pp $ 89 pp/pd
2022-05-28 Horizon 8 Southern Caribbean $ 879 pp $ 1079 pp $ 1449 pp $ 2261 pp $ 110 pp/pd
2022-06-06 Crystal Esprit 7 Mediterranean N/A N/A N/A $ 8122 pp $ 1160 pp/pd
2022-06-25 Horizon 8 Southern Caribbean $ 979 pp $ 1199 pp $ 1639 pp $ 2381 pp $ 122 pp/pd
2022-07-23 Horizon 8 Southern Caribbean $ 969 pp $ 1189 pp $ 1629 pp $ 2371 pp $ 121 pp/pd
2022-08-20 Horizon 8 Southern Caribbean $ 719 pp $ 879 pp $ 1229 pp $ 1891 pp $ 90 pp/pd
2022-09-17 Horizon 8 Southern Caribbean $ 639 pp $ 789 pp $ 1089 pp $ 1751 pp $ 80 pp/pd
2022-10-15 Horizon 8 Southern Caribbean $ 629 pp $ 779 pp $ 1079 pp $ 1741 pp $ 79 pp/pd
2022-10-22 Freedom 8 Southern Caribbean $ 599 pp $ 729 pp $ 999 pp $ 1459 pp $ 75 pp/pd
2022-11-12 Horizon 8 Southern Caribbean $ 629 pp $ 779 pp $ 1079 pp $ 1741 pp $ 79 pp/pd
2022-11-19 Freedom 8 Southern Caribbean $ 659 pp $ 799 pp $ 1059 pp $ 1519 pp $ 82 pp/pd
2022-11-27 Glory 14 Panama Canal $ 999 pp $ 1349 pp $ 2049 pp $ 3510 pp $ 71 pp/pd
2022-12-03 Magic 8 Southern Caribbean $ 529 pp $ 679 pp $ 899 pp $ 1411 pp $ 66 pp/pd
2022-12-05 Sunshine 10 Southern Caribbean $ 699 pp $ 949 pp $ 1349 pp $ 2149 pp $ 70 pp/pd
2022-12-10 Horizon 8 Southern Caribbean $ 629 pp $ 799 pp $ 1139 pp $ 1801 pp $ 79 pp/pd
2022-12-23 Freedom 8 Southern Caribbean $ 909 pp $ 1069 pp $ 1419 pp $ 1939 pp $ 114 pp/pd
2022-12-31 Magic 8 Southern Caribbean $ 919 pp $ 1139 pp $ 1389 pp $ 1951 pp $ 115 pp/pd
2023-01-07 Horizon 8 Southern Caribbean $ 629 pp $ 809 pp $ 1179 pp $ 1921 pp $ 79 pp/pd
2023-01-14 Freedom 8 Southern Caribbean $ 579 pp $ 709 pp $ 969 pp $ 1479 pp $ 72 pp/pd
2023-01-21 Horizon 8 Southern Caribbean $ 649 pp $ 849 pp $ 1259 pp $ 2001 pp $ 81 pp/pd
2023-01-28 Magic 8 Southern Caribbean $ 679 pp $ 829 pp $ 1069 pp $ 1481 pp $ 85 pp/pd
2023-02-04 Horizon 8 Southern Caribbean $ 659 pp $ 859 pp $ 1269 pp $ 2011 pp $ 82 pp/pd
2023-02-11 Freedom 8 Southern Caribbean $ 639 pp $ 769 pp $ 1059 pp $ 1569 pp $ 80 pp/pd
2023-02-18 Horizon 8 Southern Caribbean $ 679 pp $ 859 pp $ 1269 pp $ 2011 pp $ 85 pp/pd
2023-02-25 Magic 8 Southern Caribbean $ 629 pp $ 779 pp $ 1019 pp $ 1541 pp $ 79 pp/pd
2023-03-11 Freedom 8 Southern Caribbean $ 679 pp $ 819 pp $ 1119 pp $ 1599 pp $ 85 pp/pd
2023-03-18 Horizon 8 Southern Caribbean $ 759 pp $ 939 pp $ 1349 pp $ 2091 pp $ 95 pp/pd
2023-03-25 Magic 8 Southern Caribbean $ 779 pp $ 929 pp $ 1169 pp $ 1561 pp $ 97 pp/pd
2023-04-01 Horizon 8 Southern Caribbean $ 759 pp $ 939 pp $ 1349 pp $ 2091 pp $ 95 pp/pd
2023-04-08 Freedom 8 Southern Caribbean $ 679 pp $ 819 pp $ 1119 pp $ 1599 pp $ 85 pp/pd
2023-04-29 Horizon 8 Southern Caribbean $ 719 pp $ 899 pp $ 1279 pp $ 2021 pp $ 90 pp/pd
?>